Aviation Digital Data Service (ADDS)

Output produced by METARs form (2001 UTC 25 July 2016)
found at http://www.aviationweather.gov/adds/metars/
 
KDEN 251732Z 2518/2624 11006KT P6SM FEW100 FEW220 
     FM252000 04010KT P6SM FEW100 FEW220 
     FM260200 15012G20KT P6SM SCT090 BKN150 
     FM260400 18012KT P6SM FEW090 BKN150 
     FM260700 21012KT P6SM FEW140 SCT200 
     FM261600 VRB05KT P6SM SCT200 
     FM262100 01006KT P6SM SCT090 BKN140 
     PROB30 2621/2624 VRB20G35KT -TSRA BKN070CB